createdAt,value
2022-12-20T00:02:08.309Z,63.76
2022-12-20T00:07:07.650Z,63.34
2022-12-20T00:12:09.441Z,63.21
2022-12-20T00:17:13.145Z,63.02
2022-12-20T00:22:12.525Z,64.01
2022-12-20T00:27:13.625Z,64.43
2022-12-20T00:32:13.082Z,64.20
2022-12-20T00:37:11.786Z,63.61
2022-12-20T00:42:10.764Z,63.20
2022-12-20T00:47:11.442Z,62.70
2022-12-20T00:52:10.244Z,62.04
2022-12-20T00:57:09.147Z,61.00
2022-12-20T01:02:08.038Z,60.55
2022-12-20T01:07:08.874Z,61.42
2022-12-20T01:12:08.204Z,61.84
2022-12-20T01:17:07.306Z,61.09
2022-12-20T01:22:06.150Z,60.57
2022-12-20T01:27:06.544Z,60.43
2022-12-20T01:32:05.731Z,60.06
2022-12-20T01:37:04.677Z,60.03
2022-12-20T01:42:05.376Z,59.91
2022-12-20T01:47:04.594Z,59.87
2022-12-20T01:52:07.554Z,59.36
2022-12-20T01:57:12.665Z,58.71
2022-12-20T02:02:13.372Z,59.84
2022-12-20T02:07:15.137Z,59.82
2022-12-20T02:12:18.985Z,60.56
2022-12-20T02:17:30.842Z,59.90
2022-12-20T02:22:46.036Z,59.87
2022-12-20T02:27:55.746Z,60.35
2022-12-20T02:33:02.289Z,60.51
2022-12-20T02:38:06.222Z,61.19
2022-12-20T02:43:29.037Z,62.08
2022-12-20T02:48:33.609Z,61.43
2022-12-20T02:53:33.524Z,61.35
2022-12-20T02:58:39.498Z,61.12
2022-12-20T03:03:40.388Z,61.29
2022-12-20T03:08:39.399Z,61.43
2022-12-20T03:13:38.351Z,61.19
2022-12-20T03:18:42.082Z,60.67
2022-12-20T03:23:41.066Z,60.17
2022-12-20T03:28:39.889Z,59.64
2022-12-20T03:33:42.076Z,60.05
2022-12-20T03:38:43.336Z,59.87
2022-12-20T03:43:42.319Z,60.59
2022-12-20T03:48:42.806Z,61.04
2022-12-20T03:53:41.600Z,61.17
2022-12-20T03:58:40.844Z,60.17
2022-12-20T04:03:40.904Z,60.98
2022-12-20T04:08:41.087Z,61.19
2022-12-20T04:13:41.795Z,61.90
2022-12-20T04:18:42.046Z,62.05
2022-12-20T04:23:44.605Z,61.58
2022-12-20T04:28:44.403Z,61.59
2022-12-20T04:33:43.921Z,61.92
2022-12-20T04:38:45.396Z,61.86
2022-12-20T04:43:44.474Z,62.28
2022-12-20T04:48:59.825Z,61.89
2022-12-20T04:54:01.637Z,61.62
2022-12-20T04:59:20.795Z,61.31
2022-12-20T05:04:23.080Z,62.21
2022-12-20T05:09:23.476Z,62.29
2022-12-20T05:14:23.607Z,62.44
2022-12-20T05:19:22.728Z,61.83
2022-12-20T05:24:39.196Z,61.41
2022-12-20T05:30:02.264Z,61.75
2022-12-20T05:35:01.621Z,61.86
2022-12-20T05:40:01.863Z,62.91
2022-12-20T05:45:02.919Z,63.09
2022-12-20T05:50:06.180Z,62.75
2022-12-20T05:55:11.728Z,62.75
2022-12-20T06:00:15.658Z,62.74
2022-12-20T06:05:15.723Z,63.94
2022-12-20T06:10:14.905Z,64.65
2022-12-20T06:15:25.229Z,65.41
2022-12-20T06:20:24.806Z,66.91
2022-12-20T06:25:24.453Z,65.80
2022-12-20T06:30:31.861Z,66.63
2022-12-20T06:35:42.123Z,65.80
2022-12-20T06:40:41.165Z,65.86
2022-12-20T06:45:42.541Z,65.38
2022-12-20T06:50:43.828Z,64.15
2022-12-20T06:55:43.230Z,62.79
2022-12-20T07:00:43.910Z,62.34
2022-12-20T07:05:42.947Z,62.15
2022-12-20T07:10:42.007Z,62.12
2022-12-20T07:15:41.025Z,61.86
2022-12-20T07:20:41.310Z,62.24
2022-12-20T07:25:40.273Z,62.26
2022-12-20T07:30:39.283Z,62.82
2022-12-20T07:35:38.330Z,62.50
2022-12-20T07:40:42.304Z,61.99
2022-12-20T07:45:41.447Z,61.53
2022-12-20T07:50:40.691Z,62.36
2022-12-20T07:56:03.093Z,61.76
2022-12-20T08:01:10.596Z,61.25
2022-12-20T08:06:10.635Z,60.15
2022-12-20T08:11:35.937Z,61.26
2022-12-20T08:16:34.947Z,60.51
2022-12-20T08:21:34.203Z,59.96
2022-12-20T08:26:40.626Z,58.98
2022-12-20T08:31:44.431Z,59.46
2022-12-20T08:36:46.547Z,59.40
2022-12-20T08:41:46.726Z,58.08
2022-12-20T08:46:46.089Z,57.44
2022-12-20T08:51:44.992Z,56.68
2022-12-20T08:57:04.316Z,56.70
2022-12-20T09:02:32.726Z,56.17
2022-12-20T09:07:57.484Z,56.02
2022-12-20T09:13:18.354Z,55.91
2022-12-20T09:18:18.027Z,55.31
2022-12-20T09:23:16.913Z,55.69
2022-12-20T09:28:17.487Z,56.06
2022-12-20T09:33:16.494Z,56.04
2022-12-20T09:38:27.383Z,55.90
2022-12-20T09:43:57.306Z,55.47
2022-12-20T09:49:17.012Z,55.24
2022-12-20T09:54:25.047Z,55.96
2022-12-20T09:59:25.964Z,55.44
2022-12-20T10:04:27.260Z,55.53
2022-12-20T10:09:56.849Z,55.64
2022-12-20T10:15:11.447Z,54.46
2022-12-20T10:20:30.083Z,52.69
2022-12-20T10:25:32.798Z,50.33
2022-12-20T10:30:35.736Z,49.46
2022-12-20T10:35:40.623Z,47.76
2022-12-20T10:46:04.949Z,46.01
2022-12-20T10:51:16.544Z,46.02
2022-12-20T10:56:21.656Z,46.11
2022-12-20T11:01:23.971Z,44.34
2022-12-20T11:06:25.629Z,44.72
2022-12-20T11:11:26.796Z,42.48
2022-12-20T11:16:34.950Z,42.84
2022-12-20T11:21:43.481Z,42.26
2022-12-20T11:26:59.008Z,43.13
2022-12-20T11:32:07.582Z,42.36
2022-12-20T11:37:20.144Z,43.61
2022-12-20T11:42:26.141Z,43.42
2022-12-20T11:47:46.324Z,41.99
2022-12-20T11:52:49.170Z,41.02
2022-12-20T11:58:17.411Z,41.08
2022-12-20T12:03:24.162Z,42.42
2022-12-20T12:08:31.649Z,41.49
2022-12-20T12:13:42.032Z,42.61
2022-12-20T12:18:43.596Z,40.24
2022-12-20T12:24:11.803Z,39.55
2022-12-20T12:29:22.751Z,40.84
2022-12-20T12:34:48.430Z,42.13
2022-12-20T12:40:27.815Z,41.12
2022-12-20T12:45:48.226Z,41.35
2022-12-20T12:50:51.657Z,40.04
2022-12-20T12:55:51.221Z,39.20
2022-12-20T13:00:54.717Z,40.08
2022-12-20T13:06:21.687Z,40.27
2022-12-20T13:11:47.139Z,40.44
2022-12-20T13:17:11.414Z,40.90
2022-12-20T13:22:26.585Z,39.62
2022-12-20T13:28:11.838Z,39.90
2022-12-20T13:33:48.036Z,40.12
2022-12-20T13:39:52.764Z,41.13
2022-12-20T13:44:54.643Z,40.56
2022-12-20T13:49:56.600Z,41.18
2022-12-20T13:55:00.916Z,40.34
2022-12-20T14:00:09.275Z,41.96
2022-12-20T14:05:18.888Z,43.09
2022-12-20T14:10:22.217Z,42.99
2022-12-20T14:15:30.291Z,43.34
2022-12-20T14:20:35.177Z,44.25
2022-12-20T14:25:44.244Z,44.44
2022-12-20T14:30:46.183Z,45.50
2022-12-20T14:35:49.532Z,46.00
2022-12-20T14:40:56.100Z,46.70
2022-12-20T14:46:10.010Z,47.47
2022-12-20T14:51:10.911Z,47.89
2022-12-20T14:56:16.056Z,48.90
2022-12-20T15:01:47.110Z,49.78
2022-12-20T15:06:50.327Z,50.64
2022-12-20T15:11:51.735Z,51.49
2022-12-20T15:16:50.883Z,52.07
2022-12-20T15:21:51.824Z,53.44
2022-12-20T15:27:03.600Z,53.98
2022-12-20T15:44:32.585Z,59.03
2022-12-20T15:55:01.432Z,60.79
2022-12-20T16:00:02.155Z,62.53
2022-12-20T16:56:32.083Z,85.82
2022-12-20T17:01:37.182Z,80.50
2022-12-20T17:06:36.238Z,78.72
2022-12-20T17:11:36.791Z,77.00
2022-12-20T17:16:35.697Z,75.67
2022-12-20T17:26:58.174Z,74.21
2022-12-20T17:31:57.557Z,74.56
2022-12-20T17:36:58.108Z,75.38
2022-12-20T17:41:58.506Z,75.85
2022-12-20T17:46:58.565Z,75.64
2022-12-20T17:51:57.436Z,75.87
2022-12-20T17:57:00.594Z,74.94
2022-12-20T18:01:59.662Z,75.38
2022-12-20T18:07:02.375Z,76.12
2022-12-20T18:12:02.821Z,75.12
2022-12-20T18:17:01.851Z,75.51
2022-12-20T18:22:04.641Z,76.40
2022-12-20T18:27:06.542Z,75.62
2022-12-20T18:32:08.292Z,75.30
2022-12-20T18:37:11.032Z,74.87
2022-12-20T18:42:11.374Z,74.72
2022-12-20T18:47:11.341Z,74.92
2022-12-20T18:52:12.419Z,75.40
2022-12-20T18:57:12.904Z,74.66
2022-12-20T19:02:14.700Z,75.66
2022-12-20T19:07:13.836Z,74.53
2022-12-20T19:12:14.189Z,74.07
2022-12-20T19:17:15.210Z,75.36
2022-12-20T19:22:14.477Z,74.79
2022-12-20T19:27:18.569Z,74.43
2022-12-20T19:32:18.599Z,77.04
2022-12-20T19:37:18.636Z,77.02
2022-12-20T19:42:26.364Z,77.36
2022-12-20T19:47:26.690Z,77.13
2022-12-20T19:52:29.097Z,76.18
2022-12-20T19:57:29.726Z,76.59
2022-12-20T20:02:29.318Z,75.88
2022-12-20T20:07:31.493Z,75.05
2022-12-20T20:12:32.083Z,73.89
2022-12-20T20:17:32.041Z,73.73
2022-12-20T20:22:33.751Z,73.52
2022-12-20T20:27:37.016Z,73.16
2022-12-20T20:32:48.529Z,72.24
2022-12-20T20:37:59.318Z,73.42
2022-12-20T20:43:07.040Z,72.67
2022-12-20T20:48:09.387Z,73.68
2022-12-20T20:53:17.418Z,72.73
2022-12-20T20:58:18.091Z,72.32
2022-12-20T21:03:20.598Z,71.71
2022-12-20T21:08:23.652Z,71.55
2022-12-20T21:13:34.220Z,71.66
2022-12-20T21:18:35.829Z,72.35
2022-12-20T21:23:36.708Z,72.05
2022-12-20T21:28:37.349Z,71.77
2022-12-20T21:33:36.311Z,74.76
2022-12-20T21:38:35.833Z,73.56
2022-12-20T21:44:07.626Z,73.41
2022-12-20T21:49:06.458Z,73.00
2022-12-20T21:54:05.508Z,73.59
2022-12-20T21:59:06.242Z,72.75
2022-12-20T22:04:07.148Z,72.56
2022-12-20T22:09:07.910Z,73.18
2022-12-20T22:14:08.640Z,73.18
2022-12-20T22:19:09.126Z,72.31
2022-12-20T22:24:08.803Z,74.65
2022-12-20T22:29:09.787Z,74.89
2022-12-20T22:34:08.801Z,75.18
2022-12-20T22:39:07.706Z,75.96
2022-12-20T22:44:07.355Z,77.76
2022-12-20T22:49:07.763Z,76.91
2022-12-20T22:54:06.683Z,77.45
2022-12-20T22:59:06.509Z,76.94
2022-12-20T23:04:05.462Z,76.39
2022-12-20T23:09:05.953Z,75.93
2022-12-20T23:14:22.926Z,77.65
2022-12-20T23:19:21.864Z,77.03
2022-12-20T23:24:22.082Z,77.23
2022-12-20T23:29:20.841Z,77.53
2022-12-20T23:34:19.971Z,78.25
2022-12-20T23:39:18.803Z,80.39
2022-12-20T23:44:18.982Z,78.92
2022-12-20T23:49:18.042Z,78.93
2022-12-20T23:54:19.663Z,78.04
2022-12-20T23:59:19.809Z,77.66
